Time,TemperatureF,DewpointF,PressureIn,WindDirection,WindDirectionDegrees,WindSpeedMPH,WindSpeedGustMPH,Humidity,HourlyPrecipIn,Conditions,Clouds,dailyrainin,SoftwareType,DateUTC
2013-01-03 03:00:00,0.4,-6.2,29.93,North,1,2.0,2.0,73,0.00,,,0.00,Wunderground v.1.15,2013-01-03 08:00:00,
2013-01-03 03:10:00,0.3,-6.3,29.94,NE,43,1.0,1.0,73,0.00,,,0.00,Wunderground v.1.15,2013-01-03 08:10:00,
2013-01-03 03:20:00,0.2,-6.4,29.93,North,9,1.0,1.0,73,0.00,,,0.00,Wunderground v.1.15,2013-01-03 08:20:00,
2013-01-03 03:30:00,0.2,-6.4,29.93,NE,43,0.0,0.0,73,0.00,,,0.00,Wunderground v.1.15,2013-01-03 08:30:00,
2013-01-03 03:40:00,0.0,-6.3,29.93,ENE,57,1.0,2.0,74,0.00,,,0.00,Wunderground v.1.15,2013-01-03 08:40:00,
2013-01-03 03:50:00,-0.1,-6.4,29.92,East,92,1.0,1.0,74,0.00,,,0.00,Wunderground v.1.15,2013-01-03 08:50:00,
2013-01-03 04:00:00,-0.3,-6.3,29.92,NNE,23,1.0,2.0,75,0.00,,,0.00,Wunderground v.1.15,2013-01-03 09:00:00,
2013-01-03 04:10:00,-0.3,-6.3,29.93,NNE,30,1.0,1.0,75,0.00,,,0.00,Wunderground v.1.15,2013-01-03 09:10:00,
2013-01-03 04:20:00,-0.6,-6.6,29.92,NE,37,2.0,2.0,75,0.00,,,0.00,Wunderground v.1.15,2013-01-03 09:20:00,
2013-01-03 04:30:00,-0.5,-6.5,29.93,North,1,1.0,1.0,75,0.00,,,0.00,Wunderground v.1.15,2013-01-03 09:30:00,
2013-01-03 04:40:00,-0.6,-6.6,29.93,North,1,0.0,1.0,75,0.00,,,0.00,Wunderground v.1.15,2013-01-03 09:40:00,
2013-01-03 04:50:00,-1.1,-6.6,29.92,NE,41,1.0,1.0,77,0.00,,,0.00,Wunderground v.1.15,2013-01-03 09:50:00,
2013-01-03 05:00:00,-0.6,-6.4,29.92,ENE,78,1.0,2.0,76,0.00,,,0.00,Wunderground v.1.15,2013-01-03 10:00:00,
2013-01-03 05:10:00,-0.4,-6.2,29.92,East,96,1.0,1.0,76,0.00,,,0.00,Wunderground v.1.15,2013-01-03 10:10:00,
2013-01-03 05:20:00,0.0,-6.0,29.92,NNE,17,2.0,2.0,75,0.00,,,0.00,Wunderground v.1.15,2013-01-03 10:20:00,
2013-01-03 05:30:00,0.2,-5.9,29.92,NE,37,2.0,2.0,75,0.00,,,0.00,Wunderground v.1.15,2013-01-03 10:30:00,
2013-01-03 05:40:00,0.3,-5.8,29.92,ENE,75,1.0,1.0,75,0.00,,,0.00,Wunderground v.1.15,2013-01-03 10:40:00,
2013-01-03 05:50:00,0.4,-5.7,29.93,NNE,32,2.0,2.0,75,0.00,,,0.00,Wunderground v.1.15,2013-01-03 10:50:00,
2013-01-03 06:00:00,0.6,-5.5,29.93,ENE,64,2.0,2.0,75,0.00,,,0.00,Wunderground v.1.15,2013-01-03 11:00:00,
2013-01-03 06:10:00,0.7,-5.4,29.93,North,1,2.0,3.0,75,0.00,,,0.00,Wunderground v.1.15,2013-01-03 11:10:00,
2013-01-03 06:20:00,1.0,-5.1,29.94,NE,36,2.0,3.0,75,0.00,,,0.00,Wunderground v.1.15,2013-01-03 11:20:00,
2013-01-03 06:30:00,1.0,-5.1,29.93,North,8,2.0,2.0,75,0.00,,,0.00,Wunderground v.1.15,2013-01-03 11:30:00,
2013-01-03 06:40:00,1.1,-5.3,29.93,ENE,60,2.0,2.0,74,0.00,,,0.00,Wunderground v.1.15,2013-01-03 11:40:00,
2013-01-03 06:50:00,1.3,-5.1,29.92,ENE,59,3.0,3.0,74,0.00,,,0.00,Wunderground v.1.15,2013-01-03 11:50:00,
2013-01-03 07:00:00,1.5,-5.2,29.92,East,86,2.0,2.0,73,0.00,,,0.00,Wunderground v.1.15,2013-01-03 12:00:00,
2013-01-03 07:10:00,1.6,-5.1,29.92,NNW,328,1.0,1.0,73,0.00,,,0.00,Wunderground v.1.15,2013-01-03 12:10:00,
2013-01-03 07:20:00,1.6,-5.1,29.93,ENE,65,0.0,0.0,73,0.00,,,0.00,Wunderground v.1.15,2013-01-03 12:20:00,
2013-01-03 07:30:00,1.8,-4.9,29.94,East,98,1.0,1.0,73,0.00,,,0.00,Wunderground v.1.15,2013-01-03 12:30:00,
2013-01-03 07:40:00,2.0,-4.7,29.94,NE,44,0.0,0.0,73,0.00,,,0.00,Wunderground v.1.15,2013-01-03 12:40:00,
2013-01-03 07:50:00,2.2,-4.5,29.95,NNW,342,1.0,1.0,73,0.00,,,0.00,Wunderground v.1.15,2013-01-03 12:50:00,
2013-01-03 08:00:00,2.4,-4.6,29.95,ENE,75,2.0,2.0,72,0.00,,,0.00,Wunderground v.1.15,2013-01-03 13:00:00,
2013-01-03 08:10:00,2.6,-4.4,29.95,East,92,1.0,2.0,72,0.00,,,0.00,Wunderground v.1.15,2013-01-03 13:10:00,
2013-01-03 08:20:00,2.7,-4.3,29.94,ENE,68,1.0,1.0,72,0.00,,,0.00,Wunderground v.1.15,2013-01-03 13:20:00,
2013-01-03 08:30:00,2.7,-4.3,29.95,ENE,68,2.0,2.0,72,0.00,,,0.00,Wunderground v.1.15,2013-01-03 13:30:00,
2013-01-03 08:40:00,3.0,-4.0,29.95,East,79,1.0,1.0,72,0.00,,,0.00,Wunderground v.1.15,2013-01-03 13:40:00,
2013-01-03 08:50:00,3.7,-3.6,29.95,East,89,2.0,2.0,71,0.00,,,0.00,Wunderground v.1.15,2013-01-03 13:50:00,
2013-01-03 09:00:00,4.3,-3.6,29.95,East,93,2.0,2.0,69,0.00,,,0.00,Wunderground v.1.15,2013-01-03 14:00:00,
2013-01-03 09:10:00,4.9,-3.1,29.94,NNW,342,2.0,5.0,69,0.00,,,0.00,Wunderground v.1.15,2013-01-03 14:10:00,
2013-01-03 09:20:00,5.6,-2.7,29.94,ESE,117,2.0,2.0,68,0.00,,,0.00,Wunderground v.1.15,2013-01-03 14:20:00,
2013-01-03 09:30:00,6.2,-2.4,29.95,East,87,2.0,2.0,67,0.00,,,0.00,Wunderground v.1.15,2013-01-03 14:30:00,
2013-01-03 09:40:00,6.8,-2.2,29.94,East,85,1.0,2.0,66,0.00,,,0.00,Wunderground v.1.15,2013-01-03 14:40:00,
2013-01-03 09:50:00,7.6,-1.7,29.94,ESE,108,2.0,2.0,65,0.00,,,0.00,Wunderground v.1.15,2013-01-03 14:50:00,
2013-01-03 10:00:00,8.2,-1.5,29.93,East,80,2.0,2.0,64,0.00,,,0.00,Wunderground v.1.15,2013-01-03 15:00:00,
2013-01-03 10:10:00,8.8,-0.9,29.94,North,8,3.0,3.0,64,0.00,,,0.00,Wunderground v.1.15,2013-01-03 15:10:00,
2013-01-03 10:20:00,9.5,-0.9,29.93,East,101,3.0,3.0,62,0.00,,,0.00,Wunderground v.1.15,2013-01-03 15:20:00,
2013-01-03 10:30:00,10.4,-0.4,29.93,SE,124,3.0,3.0,61,0.00,,,0.00,Wunderground v.1.15,2013-01-03 15:30:00,
2013-01-03 10:40:00,11.0,-0.2,29.92,ENE,76,3.0,6.0,60,0.00,,,0.00,Wunderground v.1.15,2013-01-03 15:40:00,
2013-01-03 10:50:00,11.4,0.2,29.91,NNE,27,3.0,3.0,60,0.00,,,0.00,Wunderground v.1.15,2013-01-03 15:50:00,
2013-01-03 11:00:00,12.1,0.9,29.91,ENE,64,2.0,2.0,60,0.00,,,0.00,Wunderground v.1.15,2013-01-03 16:00:00,
2013-01-03 11:10:00,12.8,1.2,29.90,ESE,113,3.0,3.0,59,0.00,,,0.00,Wunderground v.1.15,2013-01-03 16:10:00,
2013-01-03 11:20:00,13.8,1.7,29.90,ENE,75,3.0,4.0,58,0.00,,,0.00,Wunderground v.1.15,2013-01-03 16:20:00,
2013-01-03 11:30:00,14.4,1.9,29.89,East,92,3.0,3.0,57,0.00,,,0.00,Wunderground v.1.15,2013-01-03 16:30:00,
2013-01-03 11:40:00,14.8,2.3,29.88,SE,126,4.0,4.0,57,0.00,,,0.00,Wunderground v.1.15,2013-01-03 16:40:00,
2013-01-03 11:50:00,15.4,2.9,29.88,SE,125,4.0,4.0,57,0.00,,,0.00,Wunderground v.1.15,2013-01-03 16:50:00,
2013-01-03 12:00:00,16.2,3.2,29.88,ENE,67,3.0,4.0,56,0.00,,,0.00,Wunderground v.1.15,2013-01-03 17:00:00,
2013-01-03 12:10:00,16.8,3.0,29.87,East,89,4.0,5.0,54,0.00,,,0.00,Wunderground v.1.15,2013-01-03 17:10:00,
2013-01-03 12:20:00,17.1,3.3,29.87,ESE,108,4.0,4.0,54,0.00,,,0.00,Wunderground v.1.15,2013-01-03 17:20:00,
2013-01-03 12:30:00,18.0,4.1,29.86,East,91,2.0,2.0,54,0.00,,,0.00,Wunderground v.1.15,2013-01-03 17:30:00,
2013-01-03 12:40:00,18.5,5.0,29.86,ESE,119,2.0,2.0,55,0.00,,,0.00,Wunderground v.1.15,2013-01-03 17:40:00,
2013-01-03 12:50:00,18.7,4.0,29.86,ENE,72,3.0,3.0,52,0.00,,,0.00,Wunderground v.1.15,2013-01-03 17:50:00,
2013-01-03 13:00:00,18.7,4.4,29.85,East,98,3.0,4.0,53,0.00,,,0.00,Wunderground v.1.15,2013-01-03 18:00:00,
2013-01-03 13:10:00,18.8,4.5,29.85,East,99,3.0,5.0,53,0.00,,,0.00,Wunderground v.1.15,2013-01-03 18:10:00,
2013-01-03 13:20:00,18.9,4.1,29.85,ESE,113,3.0,4.0,52,0.00,,,0.00,Wunderground v.1.15,2013-01-03 18:20:00,
2013-01-03 13:30:00,19.4,4.6,29.85,East,89,2.0,3.0,52,0.00,,,0.00,Wunderground v.1.15,2013-01-03 18:30:00,
2013-01-03 13:40:00,19.6,4.4,29.85,North,6,3.0,3.0,51,0.00,,,0.00,Wunderground v.1.15,2013-01-03 18:40:00,
2013-01-03 13:50:00,19.7,4.9,29.85,East,81,2.0,2.0,52,0.00,,,0.00,Wunderground v.1.15,2013-01-03 18:50:00,
2013-01-03 14:00:00,19.8,4.6,29.86,ENE,78,2.0,2.0,51,0.00,,,0.00,Wunderground v.1.15,2013-01-03 19:00:00,
2013-01-03 14:10:00,19.8,4.1,29.86,ENE,64,3.0,5.0,50,0.00,,,0.00,Wunderground v.1.15,2013-01-03 19:10:00,
2013-01-03 15:00:00,20.0,4.7,29.84,East,98,1.0,1.0,51,0.00,,,0.00,Wunderground v.1.15,2013-01-03 20:00:00,
2013-01-03 15:10:00,20.0,4.7,29.84,ESE,109,1.0,2.0,51,0.00,,,0.00,Wunderground v.1.15,2013-01-03 20:10:00,
2013-01-03 15:20:00,19.9,4.2,29.84,East,91,2.0,2.0,50,0.00,,,0.00,Wunderground v.1.15,2013-01-03 20:20:00,
2013-01-03 15:30:00,19.7,4.9,29.83,ENE,63,1.0,1.0,52,0.00,,,0.00,Wunderground v.1.15,2013-01-03 20:30:00,
2013-01-03 15:40:00,19.3,4.5,29.84,NNE,28,0.0,1.0,52,0.00,,,0.00,Wunderground v.1.15,2013-01-03 20:40:00,
2013-01-03 15:50:00,18.8,4.9,29.84,NNE,29,0.0,0.0,54,0.00,,,0.00,Wunderground v.1.15,2013-01-03 20:50:00,
2013-01-03 16:00:00,18.2,4.3,29.84,NNE,29,0.0,0.0,54,0.00,,,0.00,Wunderground v.1.15,2013-01-03 21:00:00,
2013-01-03 16:10:00,17.5,4.1,29.84,NNE,28,0.0,0.0,55,0.00,,,0.00,Wunderground v.1.15,2013-01-03 21:10:00,
2013-01-03 16:20:00,17.0,4.4,29.84,NNE,29,0.0,0.0,57,0.00,,,0.00,Wunderground v.1.15,2013-01-03 21:20:00,
2013-01-03 16:30:00,16.3,4.8,29.84,NNE,28,0.0,0.0,60,0.00,,,0.00,Wunderground v.1.15,2013-01-03 21:30:00,
2013-01-03 16:40:00,15.0,4.0,29.84,NNE,29,0.0,0.0,61,0.00,,,0.00,Wunderground v.1.15,2013-01-03 21:40:00,
2013-01-03 16:50:00,13.7,4.1,29.84,NNE,28,0.0,0.0,65,0.00,,,0.00,Wunderground v.1.15,2013-01-03 21:50:00,
2013-01-03 17:00:00,13.0,3.8,29.84,NNE,28,0.0,0.0,66,0.00,,,0.00,Wunderground v.1.15,2013-01-03 22:00:00,
2013-01-03 17:10:00,12.0,3.1,29.84,NNE,28,0.0,0.0,67,0.00,,,0.00,Wunderground v.1.15,2013-01-03 22:10:00,
2013-01-03 17:20:00,11.8,3.3,29.84,NNE,29,0.0,0.0,68,0.00,,,0.00,Wunderground v.1.15,2013-01-03 22:20:00,
2013-01-03 17:30:00,11.6,4.0,29.84,NNE,28,0.0,0.0,71,0.00,,,0.00,Wunderground v.1.15,2013-01-03 22:30:00,
2013-01-03 17:40:00,11.4,4.1,29.84,NNE,29,0.0,0.0,72,0.00,,,0.00,Wunderground v.1.15,2013-01-03 22:40:00,
2013-01-03 17:50:00,11.1,4.1,29.84,NNE,29,0.0,0.0,73,0.00,,,0.00,Wunderground v.1.15,2013-01-03 22:50:00,
2013-01-03 18:00:00,10.9,4.2,29.84,NNE,29,0.0,0.0,74,0.00,,,0.00,Wunderground v.1.15,2013-01-03 23:00:00,
2013-01-03 18:10:00,11.8,4.5,29.84,NNE,28,0.0,0.0,72,0.00,,,0.00,Wunderground v.1.15,2013-01-03 23:10:00,
2013-01-03 18:20:00,11.9,4.6,29.84,NNE,29,0.0,0.0,72,0.00,,,0.00,Wunderground v.1.15,2013-01-03 23:20:00,
2013-01-03 18:30:00,12.2,4.3,29.84,NNE,29,0.0,0.0,70,0.00,,,0.00,Wunderground v.1.15,2013-01-03 23:30:00,
2013-01-03 18:40:00,12.6,4.3,29.85,NNE,29,0.0,0.0,69,0.00,,,0.00,Wunderground v.1.15,2013-01-03 23:40:00,
2013-01-03 18:50:00,12.7,4.4,29.85,NNE,20,0.0,0.0,69,0.00,,,0.00,Wunderground v.1.15,2013-01-03 23:50:00,
2013-01-03 19:00:00,13.1,4.8,29.85,NNE,20,0.0,0.0,69,0.00,,,0.00,Wunderground v.1.15,2013-01-04 00:00:00,
2013-01-03 19:10:00,13.7,4.1,29.85,NE,46,0.0,1.0,65,0.00,,,0.00,Wunderground v.1.15,2013-01-04 00:10:00,
2013-01-03 19:20:00,14.1,4.1,29.85,NE,44,0.0,1.0,64,0.00,,,0.00,Wunderground v.1.15,2013-01-04 00:20:00,
2013-01-03 19:30:00,14.3,4.0,29.85,ENE,57,0.0,0.0,63,0.00,,,0.00,Wunderground v.1.15,2013-01-04 00:30:00,
2013-01-03 19:40:00,14.4,3.7,29.85,East,91,1.0,1.0,62,0.00,,,0.00,Wunderground v.1.15,2013-01-04 00:40:00,
2013-01-03 19:50:00,14.5,3.8,29.85,North,349,1.0,1.0,62,0.00,,,0.00,Wunderground v.1.15,2013-01-04 00:50:00,
2013-01-03 20:00:00,14.5,3.8,29.85,ENE,70,0.0,0.0,62,0.00,,,0.00,Wunderground v.1.15,2013-01-04 01:00:00,
2013-01-03 20:10:00,14.5,3.5,29.85,NE,53,1.0,2.0,61,0.00,,,0.00,Wunderground v.1.15,2013-01-04 01:10:00,
2013-01-03 20:20:00,14.5,3.8,29.86,NE,53,1.0,1.0,62,0.00,,,0.00,Wunderground v.1.15,2013-01-04 01:20:00,
2013-01-03 20:30:00,14.5,3.8,29.86,NNE,30,1.0,1.0,62,0.00,,,0.00,Wunderground v.1.15,2013-01-04 01:30:00,
2013-01-03 20:40:00,14.6,3.9,29.85,NE,34,1.0,1.0,62,0.00,,,0.00,Wunderground v.1.15,2013-01-04 01:40:00,
2013-01-03 20:50:00,14.6,3.6,29.85,NE,53,0.0,2.0,61,0.00,,,0.00,Wunderground v.1.15,2013-01-04 01:50:00,
2013-01-03 21:00:00,14.7,3.7,29.85,ENE,57,1.0,1.0,61,0.00,,,0.00,Wunderground v.1.15,2013-01-04 02:00:00,
2013-01-03 21:10:00,14.7,3.7,29.86,ENE,60,0.0,0.0,61,0.00,,,0.00,Wunderground v.1.15,2013-01-04 02:10:00,
2013-01-03 21:20:00,14.7,3.7,29.85,ENE,64,0.0,0.0,61,0.00,,,0.00,Wunderground v.1.15,2013-01-04 02:20:00,
2013-01-03 21:30:00,14.7,3.7,29.85,NNE,25,0.0,1.0,61,0.00,,,0.00,Wunderground v.1.15,2013-01-04 02:30:00,
2013-01-03 21:40:00,14.7,3.7,29.85,NE,37,1.0,1.0,61,0.00,,,0.00,Wunderground v.1.15,2013-01-04 02:40:00,
2013-01-03 21:50:00,14.7,3.7,29.85,NE,37,0.0,0.0,61,0.00,,,0.00,Wunderground v.1.15,2013-01-04 02:50:00,
2013-01-03 22:00:00,14.6,3.9,29.84,NE,37,0.0,0.0,62,0.00,,,0.00,Wunderground v.1.15,2013-01-04 03:00:00,
2013-01-03 22:10:00,14.6,3.9,29.85,NE,37,0.0,0.0,62,0.00,,,0.00,Wunderground v.1.15,2013-01-04 03:10:00,
2013-01-03 22:20:00,14.6,4.3,29.84,NE,37,0.0,0.0,63,0.00,,,0.00,Wunderground v.1.15,2013-01-04 03:20:00,
2013-01-03 22:30:00,14.3,4.7,29.84,NE,37,0.0,0.0,65,0.00,,,0.00,Wunderground v.1.15,2013-01-04 03:30:00,
2013-01-03 22:40:00,13.8,4.5,29.84,NE,37,0.0,0.0,66,0.00,,,0.00,Wunderground v.1.15,2013-01-04 03:40:00,
2013-01-03 22:50:00,13.0,5.4,29.84,NE,37,0.0,0.0,71,0.00,,,0.00,Wunderground v.1.15,2013-01-04 03:50:00,
2013-01-03 23:00:00,12.2,4.6,29.84,NE,37,0.0,0.0,71,0.00,,,0.00,Wunderground v.1.15,2013-01-04 04:00:00,
2013-01-03 23:10:00,11.5,3.9,29.83,NE,37,0.0,0.0,71,0.00,,,0.00,Wunderground v.1.15,2013-01-04 04:10:00,
2013-01-03 23:20:00,10.8,3.8,29.83,NE,37,0.0,0.0,73,0.00,,,0.00,Wunderground v.1.15,2013-01-04 04:20:00,
2013-01-03 23:30:00,10.4,3.5,29.83,NE,37,0.0,0.0,73,0.00,,,0.00,Wunderground v.1.15,2013-01-04 04:30:00,
2013-01-03 23:40:00,9.9,3.6,29.82,NE,37,0.0,0.0,75,0.00,,,0.00,Wunderground v.1.15,2013-01-04 04:40:00,
2013-01-03 23:50:00,8.9,3.2,29.82,NE,37,0.0,0.0,77,0.00,,,0.00,Wunderground v.1.15,2013-01-04 04:50:00,